createdAt,value
2022-10-31T00:00:34.814Z,97400.00
2022-10-31T00:03:02.290Z,97403.00
2022-10-31T00:05:29.695Z,97404.00
2022-10-31T00:07:56.845Z,97400.00
2022-10-31T00:10:23.996Z,97399.00
2022-10-31T00:12:52.013Z,97404.00
2022-10-31T00:15:19.355Z,97396.00
2022-10-31T00:17:46.481Z,97401.00
2022-10-31T00:20:13.627Z,97401.00
2022-10-31T00:22:40.771Z,97406.00
2022-10-31T00:25:08.226Z,97393.00
2022-10-31T00:27:35.391Z,97402.00
2022-10-31T00:30:02.855Z,97397.00
2022-10-31T00:32:31.228Z,97401.00
2022-10-31T00:34:58.375Z,97396.00
2022-10-31T00:37:25.514Z,97395.00
2022-10-31T00:39:52.648Z,97402.00
2022-10-31T00:42:19.807Z,97398.00
2022-10-31T00:44:46.969Z,97395.00
2022-10-31T00:47:14.103Z,97403.00
2022-10-31T00:49:41.257Z,97386.00
2022-10-31T00:52:08.399Z,97386.00
2022-10-31T00:54:35.582Z,97391.00
2022-10-31T00:57:02.722Z,97386.00
2022-10-31T00:59:29.862Z,97390.00
2022-10-31T01:01:57.182Z,97395.00
2022-10-31T01:04:24.478Z,97396.00
2022-10-31T01:06:51.692Z,97395.00
2022-10-31T01:09:18.933Z,97394.00
2022-10-31T01:11:46.109Z,97389.00
2022-10-31T01:14:13.297Z,97385.00
2022-10-31T01:16:40.442Z,97388.00
2022-10-31T01:19:07.594Z,97384.00
2022-10-31T01:21:34.787Z,97382.00
2022-10-31T01:24:04.872Z,97379.00
2022-10-31T01:26:33.416Z,97383.00
2022-10-31T01:29:03.748Z,97378.00
2022-10-31T01:31:33.494Z,97379.00
2022-10-31T01:34:01.260Z,97387.00
2022-10-31T01:36:31.416Z,97379.00
2022-10-31T01:39:00.857Z,97378.00
2022-10-31T01:41:30.712Z,97379.00
2022-10-31T01:44:03.489Z,97380.00
2022-10-31T01:46:41.263Z,97381.00
2022-10-31T01:49:23.765Z,97371.00
2022-10-31T01:51:58.012Z,97375.00
2022-10-31T01:54:29.994Z,97362.00
2022-10-31T01:56:57.896Z,97366.00
2022-10-31T01:59:28.916Z,97366.00
2022-10-31T02:01:56.287Z,97365.00
2022-10-31T02:04:25.485Z,97366.00
2022-10-31T02:07:06.226Z,97361.00
2022-10-31T02:09:33.610Z,97363.00
2022-10-31T02:12:01.190Z,97355.00
2022-10-31T02:14:31.407Z,97367.00
2022-10-31T02:16:58.974Z,97362.00
2022-10-31T02:20:03.653Z,97354.00
2022-10-31T02:23:07.876Z,97357.00
2022-10-31T02:26:22.085Z,97358.00
2022-10-31T02:29:16.905Z,97349.00
2022-10-31T02:32:14.763Z,97355.00
2022-10-31T02:35:14.981Z,97345.00
2022-10-31T02:38:04.537Z,97348.00
2022-10-31T02:40:43.997Z,97346.00
2022-10-31T02:43:17.296Z,97342.00
2022-10-31T02:46:05.250Z,97339.00
2022-10-31T02:48:56.376Z,97337.00
2022-10-31T02:51:23.653Z,97333.00
2022-10-31T02:53:50.847Z,97331.00
2022-10-31T02:56:19.805Z,97330.00
2022-10-31T02:59:05.984Z,97336.00
2022-10-31T03:02:08.423Z,97332.00
2022-10-31T03:04:54.165Z,97336.00
2022-10-31T03:07:59.876Z,97336.00
2022-10-31T03:10:57.907Z,97324.00
2022-10-31T03:13:39.564Z,97328.00
2022-10-31T03:16:33.504Z,97322.00
2022-10-31T03:19:07.724Z,97317.00
2022-10-31T03:21:55.529Z,97323.00
2022-10-31T03:24:23.677Z,97319.00
2022-10-31T03:26:53.674Z,97322.00
2022-10-31T03:29:23.507Z,97319.00
2022-10-31T03:31:57.161Z,97317.00
2022-10-31T03:34:24.363Z,97322.00
2022-10-31T03:36:53.338Z,97325.00
2022-10-31T03:39:21.692Z,97314.00
2022-10-31T03:41:59.663Z,97316.00
2022-10-31T03:44:28.985Z,97310.00
2022-10-31T03:46:56.198Z,97308.00
2022-10-31T03:49:23.439Z,97307.00
2022-10-31T03:52:09.433Z,97307.00
2022-10-31T03:54:40.830Z,97310.00
2022-10-31T03:57:33.934Z,97309.00
2022-10-31T04:00:35.543Z,97313.00
2022-10-31T04:03:35.697Z,97309.00
2022-10-31T04:06:34.749Z,97307.00
2022-10-31T04:09:05.196Z,97304.00
2022-10-31T04:11:36.147Z,97312.00
2022-10-31T04:14:05.051Z,97306.00
2022-10-31T04:16:32.485Z,97301.00
2022-10-31T04:18:59.653Z,97305.00
2022-10-31T04:21:30.603Z,97298.00
2022-10-31T04:23:58.388Z,97306.00
2022-10-31T04:26:25.607Z,97303.00
2022-10-31T04:28:52.767Z,97305.00
2022-10-31T04:31:19.923Z,97307.00
2022-10-31T04:33:47.196Z,97310.00
2022-10-31T04:36:14.444Z,97306.00
2022-10-31T04:38:41.586Z,97307.00
2022-10-31T04:41:08.755Z,97297.00
2022-10-31T04:43:35.953Z,97296.00
2022-10-31T04:46:03.200Z,97302.00
2022-10-31T04:48:30.579Z,97301.00
2022-10-31T04:51:02.062Z,97305.00
2022-10-31T04:53:29.671Z,97293.00
2022-10-31T04:55:58.461Z,97295.00
2022-10-31T04:58:25.614Z,97288.00
2022-10-31T05:00:56.734Z,97296.00
2022-10-31T05:03:24.176Z,97295.00
2022-10-31T05:05:51.360Z,97288.00
2022-10-31T05:08:18.537Z,97294.00
2022-10-31T05:10:45.689Z,97297.00
2022-10-31T05:13:12.945Z,97280.00
2022-10-31T05:15:40.145Z,97289.00
2022-10-31T05:18:07.322Z,97287.00
2022-10-31T05:20:34.835Z,97286.00
2022-10-31T05:23:02.238Z,97282.00
2022-10-31T05:25:30.517Z,97282.00
2022-10-31T05:27:58.603Z,97281.00
2022-10-31T05:30:28.577Z,97275.00
2022-10-31T05:32:56.192Z,97276.00
2022-10-31T05:35:29.844Z,97278.00
2022-10-31T05:37:58.557Z,97286.00
2022-10-31T05:40:26.980Z,97276.00
2022-10-31T05:42:55.329Z,97280.00
2022-10-31T05:45:23.054Z,97277.00
2022-10-31T05:48:01.308Z,97281.00
2022-10-31T05:50:31.034Z,97284.00
2022-10-31T05:53:08.604Z,97284.00
2022-10-31T05:55:35.801Z,97281.00
2022-10-31T05:58:03.157Z,97290.00
2022-10-31T06:00:30.674Z,97294.00
2022-10-31T06:03:05.322Z,97292.00
2022-10-31T06:05:33.041Z,97289.00
2022-10-31T06:08:00.632Z,97298.00
2022-10-31T06:10:28.695Z,97292.00
2022-10-31T06:12:55.881Z,97296.00
2022-10-31T06:15:24.395Z,97296.00
2022-10-31T06:18:04.000Z,97288.00
2022-10-31T06:20:31.967Z,97286.00
2022-10-31T06:22:59.462Z,97290.00
2022-10-31T06:25:27.005Z,97286.00
2022-10-31T06:27:54.251Z,97280.00
2022-10-31T06:30:21.683Z,97287.00
2022-10-31T06:32:50.321Z,97283.00
2022-10-31T06:35:17.588Z,97281.00
2022-10-31T06:37:51.483Z,97286.00
2022-10-31T06:40:18.856Z,97281.00
2022-10-31T06:42:45.976Z,97284.00
2022-10-31T06:45:13.223Z,97283.00
2022-10-31T06:47:56.624Z,97281.00
2022-10-31T06:50:27.549Z,97284.00
2022-10-31T06:52:57.039Z,97284.00
2022-10-31T06:55:25.262Z,97279.00
2022-10-31T06:57:58.958Z,97285.00
2022-10-31T07:00:30.481Z,97283.00
2022-10-31T07:03:10.704Z,97288.00
2022-10-31T07:05:37.923Z,97286.00
2022-10-31T07:08:07.540Z,97290.00
2022-10-31T07:10:40.060Z,97294.00
2022-10-31T07:13:14.841Z,97296.00
2022-10-31T07:15:43.386Z,97291.00
2022-10-31T07:18:11.828Z,97293.00
2022-10-31T07:20:39.100Z,97295.00
2022-10-31T07:23:06.746Z,97294.00
2022-10-31T07:25:34.220Z,97296.00
2022-10-31T07:28:01.895Z,97289.00
2022-10-31T07:30:29.311Z,97291.00
2022-10-31T07:32:56.465Z,97295.00
2022-10-31T07:35:28.191Z,97301.00
2022-10-31T07:37:55.764Z,97298.00
2022-10-31T07:40:23.788Z,97313.00
2022-10-31T07:42:52.186Z,97310.00
2022-10-31T07:45:22.833Z,97318.00
2022-10-31T07:47:51.809Z,97313.00
2022-10-31T07:50:23.989Z,97307.00
2022-10-31T07:53:00.988Z,97311.00
2022-10-31T07:55:28.852Z,97314.00
2022-10-31T07:58:00.522Z,97318.00
2022-10-31T08:00:28.486Z,97315.00
2022-10-31T08:03:02.903Z,97309.00
2022-10-31T08:05:30.937Z,97323.00
2022-10-31T08:07:59.073Z,97319.00
2022-10-31T08:10:27.563Z,97319.00
2022-10-31T08:13:04.081Z,97316.00
2022-10-31T08:15:31.353Z,97319.00
2022-10-31T08:17:59.053Z,97311.00
2022-10-31T08:20:26.445Z,97314.00
2022-10-31T08:22:58.232Z,97319.00
2022-10-31T08:25:25.962Z,97323.00
2022-10-31T08:27:54.363Z,97315.00
2022-10-31T08:30:23.769Z,97322.00
2022-10-31T08:33:03.781Z,97311.00
2022-10-31T08:35:31.054Z,97313.00
2022-10-31T08:37:58.920Z,97307.00
2022-10-31T08:40:30.270Z,97315.00
2022-10-31T08:43:05.952Z,97307.00
2022-10-31T08:45:34.466Z,97299.00
2022-10-31T08:48:04.154Z,97300.00
2022-10-31T08:50:32.902Z,97296.00
2022-10-31T08:53:13.637Z,97299.00
2022-10-31T08:55:41.661Z,97293.00
2022-10-31T08:58:14.750Z,97289.00
2022-10-31T09:00:42.306Z,97284.00
2022-10-31T09:03:23.077Z,97286.00
2022-10-31T09:05:50.652Z,97273.00
2022-10-31T09:08:18.198Z,97284.00
2022-10-31T09:10:46.495Z,97278.00
2022-10-31T09:13:19.042Z,97278.00
2022-10-31T09:15:48.329Z,97281.00
2022-10-31T09:18:17.448Z,97278.00
2022-10-31T09:20:46.326Z,97269.00
2022-10-31T09:23:21.381Z,97267.00
2022-10-31T09:29:11.650Z,97260.00
2022-10-31T09:31:51.142Z,97254.00
2022-10-31T09:34:34.814Z,97255.00
2022-10-31T09:37:36.241Z,97256.00
2022-10-31T09:40:30.324Z,97244.00
2022-10-31T09:43:46.851Z,97245.00
2022-10-31T09:47:24.341Z,97235.00
2022-10-31T09:51:11.730Z,97235.00
2022-10-31T09:53:46.666Z,97233.00
2022-10-31T09:56:17.599Z,97240.00
2022-10-31T09:58:46.278Z,97249.00
2022-10-31T10:01:42.503Z,97247.00
2022-10-31T10:04:21.682Z,97258.00
2022-10-31T10:06:51.524Z,97255.00
2022-10-31T10:11:59.395Z,97247.00
2022-10-31T10:14:36.002Z,97247.00
2022-10-31T10:17:46.645Z,97239.00
2022-10-31T10:20:29.784Z,97242.00
2022-10-31T10:23:31.722Z,97244.00
2022-10-31T10:26:24.935Z,97241.00
2022-10-31T10:29:42.997Z,97238.00
2022-10-31T10:36:07.440Z,97237.00
2022-10-31T10:39:27.789Z,97233.00
2022-10-31T10:45:50.841Z,97226.00
2022-10-31T10:48:31.877Z,97228.00
2022-10-31T10:50:59.463Z,97224.00
2022-10-31T10:54:15.001Z,97216.00
2022-10-31T10:56:57.165Z,97230.00
2022-10-31T10:59:24.577Z,97233.00
2022-10-31T11:01:52.790Z,97233.00
2022-10-31T11:04:36.688Z,97242.00
2022-10-31T11:07:11.590Z,97244.00
2022-10-31T11:13:18.566Z,97227.00
2022-10-31T11:16:08.863Z,97215.00
2022-10-31T11:18:40.690Z,97218.00
2022-10-31T11:21:38.032Z,97207.00
2022-10-31T11:24:08.077Z,97207.00
2022-10-31T11:26:36.185Z,97211.00
2022-10-31T11:29:04.138Z,97202.00
2022-10-31T11:31:31.971Z,97194.00
2022-10-31T11:34:05.856Z,97192.00
2022-10-31T11:36:35.999Z,97173.00
2022-10-31T11:39:05.365Z,97163.00
2022-10-31T11:41:40.340Z,97161.00
2022-10-31T11:44:14.545Z,97170.00
2022-10-31T11:46:50.363Z,97164.00
2022-10-31T11:49:20.124Z,97147.00
2022-10-31T11:51:54.162Z,97151.00
2022-10-31T11:54:31.141Z,97144.00
2022-10-31T11:56:58.364Z,97147.00
2022-10-31T11:59:30.755Z,97144.00
2022-10-31T12:02:00.768Z,97131.00
2022-10-31T12:04:44.699Z,97125.00
2022-10-31T12:07:11.855Z,97117.00
2022-10-31T12:09:41.079Z,97110.00
2022-10-31T12:12:26.406Z,97108.00
2022-10-31T12:15:16.696Z,97102.00
2022-10-31T12:18:13.113Z,97086.00
2022-10-31T12:21:07.074Z,97083.00
2022-10-31T12:24:04.426Z,97087.00
2022-10-31T12:26:43.377Z,97073.00
2022-10-31T12:29:23.546Z,97069.00
2022-10-31T12:32:01.673Z,97066.00
2022-10-31T12:34:55.318Z,97063.00
2022-10-31T12:37:40.430Z,97064.00
2022-10-31T12:40:40.547Z,97063.00
2022-10-31T12:43:37.801Z,97071.00
2022-10-31T12:46:09.266Z,97058.00
2022-10-31T12:49:17.453Z,97066.00
2022-10-31T12:52:12.281Z,97054.00
2022-10-31T12:55:04.511Z,97050.00
2022-10-31T12:57:42.179Z,97042.00
2022-10-31T13:00:20.878Z,97028.00
2022-10-31T13:03:06.409Z,97027.00
2022-10-31T13:05:39.048Z,97030.00
2022-10-31T13:08:35.886Z,97017.00
2022-10-31T13:11:19.837Z,97021.00
2022-10-31T13:14:12.253Z,97027.00
2022-10-31T13:16:42.635Z,97021.00
2022-10-31T13:19:12.704Z,97013.00
2022-10-31T13:22:07.834Z,97002.00
2022-10-31T13:24:55.665Z,97005.00
2022-10-31T13:27:23.553Z,97020.00
2022-10-31T13:30:12.163Z,97025.00
2022-10-31T13:32:55.290Z,97026.00
2022-10-31T13:35:37.492Z,97020.00
2022-10-31T13:38:41.769Z,97007.00
2022-10-31T13:41:44.578Z,96998.00
2022-10-31T13:44:20.763Z,97001.00
2022-10-31T13:46:48.208Z,96985.00
2022-10-31T13:49:30.609Z,96997.00
2022-10-31T13:52:13.118Z,97001.00
2022-10-31T13:54:47.738Z,96986.00
2022-10-31T13:57:29.051Z,96984.00
2022-10-31T14:00:04.985Z,96967.00
2022-10-31T14:02:36.802Z,96968.00
2022-10-31T14:05:24.773Z,96957.00
2022-10-31T14:07:53.725Z,96944.00
2022-10-31T14:10:32.011Z,96949.00
2022-10-31T14:13:22.293Z,96947.00
2022-10-31T14:16:03.961Z,96942.00
2022-10-31T14:18:34.799Z,96936.00
2022-10-31T14:21:01.950Z,96922.00
2022-10-31T14:23:33.615Z,96917.00
2022-10-31T14:26:28.032Z,96911.00
2022-10-31T14:29:16.696Z,96906.00
2022-10-31T14:32:16.328Z,96904.00
2022-10-31T14:34:55.263Z,96894.00
2022-10-31T14:37:35.719Z,96890.00
2022-10-31T14:40:14.642Z,96889.00
2022-10-31T14:42:47.814Z,96888.00
2022-10-31T14:45:28.228Z,96896.00
2022-10-31T14:48:06.795Z,96899.00
2022-10-31T14:51:09.618Z,96907.00
2022-10-31T14:53:49.193Z,96901.00
2022-10-31T14:56:27.870Z,96895.00
2022-10-31T14:58:57.751Z,96890.00
2022-10-31T15:01:29.486Z,96899.00
2022-10-31T15:04:22.320Z,96891.00
2022-10-31T15:07:24.182Z,96902.00
2022-10-31T15:10:07.282Z,96890.00
2022-10-31T15:12:38.968Z,96892.00
2022-10-31T15:15:13.443Z,96885.00
2022-10-31T15:17:45.728Z,96880.00
2022-10-31T15:20:13.781Z,96889.00
2022-10-31T15:22:40.946Z,96893.00
2022-10-31T15:25:23.553Z,96883.00
2022-10-31T15:27:51.850Z,96886.00
2022-10-31T15:30:24.141Z,96882.00
2022-10-31T15:32:58.206Z,96883.00
2022-10-31T15:35:30.537Z,96891.00
2022-10-31T15:38:02.592Z,96894.00
2022-10-31T15:40:30.068Z,96893.00
2022-10-31T15:43:05.588Z,96905.00
2022-10-31T15:45:33.092Z,96911.00
2022-10-31T15:48:02.828Z,96918.00
2022-10-31T15:50:37.077Z,96902.00
2022-10-31T15:53:05.937Z,96903.00
2022-10-31T15:55:37.734Z,96910.00
2022-10-31T15:58:12.589Z,96888.00
2022-10-31T16:00:41.512Z,96891.00
2022-10-31T16:03:15.337Z,96890.00
2022-10-31T16:05:52.968Z,96900.00
2022-10-31T16:08:26.598Z,96898.00
2022-10-31T16:10:54.808Z,96903.00
2022-10-31T16:13:28.931Z,96901.00
2022-10-31T16:16:28.812Z,96909.00
2022-10-31T16:18:48.476Z,96916.00
2022-10-31T16:21:15.662Z,96917.00
2022-10-31T16:23:48.498Z,96912.00
2022-10-31T16:26:18.656Z,96913.00
2022-10-31T16:29:03.205Z,96909.00
2022-10-31T16:31:40.851Z,96916.00
2022-10-31T16:34:26.224Z,96915.00
2022-10-31T16:36:54.233Z,96913.00
2022-10-31T16:39:21.467Z,96916.00
2022-10-31T16:41:52.497Z,96918.00
2022-10-31T16:44:27.151Z,96913.00
2022-10-31T16:47:16.149Z,96924.00
2022-10-31T16:49:44.103Z,96947.00
2022-10-31T16:52:11.351Z,96953.00
2022-10-31T16:54:38.509Z,96957.00
2022-10-31T16:57:06.574Z,96958.00
2022-10-31T16:59:34.702Z,96956.00
2022-10-31T17:02:02.287Z,96942.00
2022-10-31T17:04:29.602Z,96945.00
2022-10-31T17:06:56.846Z,96955.00
2022-10-31T17:09:23.963Z,96949.00
2022-10-31T17:11:52.235Z,96945.00
2022-10-31T17:14:20.178Z,96958.00
2022-10-31T17:16:47.308Z,96965.00
2022-10-31T17:19:14.476Z,96968.00
2022-10-31T17:21:41.988Z,96958.00
2022-10-31T17:24:15.124Z,96967.00
2022-10-31T17:26:42.574Z,96974.00
2022-10-31T17:29:09.699Z,96969.00
2022-10-31T17:31:39.085Z,96968.00
2022-10-31T17:34:07.121Z,96961.00
2022-10-31T17:36:35.037Z,96963.00
2022-10-31T17:39:03.475Z,96960.00
2022-10-31T17:41:30.617Z,96985.00
2022-10-31T17:43:58.437Z,96993.00
2022-10-31T17:46:25.760Z,96979.00
2022-10-31T17:48:52.905Z,96992.00
2022-10-31T17:51:20.073Z,97017.00
2022-10-31T17:53:47.226Z,96984.00
2022-10-31T17:56:14.349Z,96980.00
2022-10-31T17:58:52.048Z,97009.00
2022-10-31T18:01:29.835Z,96973.00
2022-10-31T18:04:20.755Z,96970.00
2022-10-31T18:07:21.855Z,97016.00
2022-10-31T18:09:55.271Z,96990.00
2022-10-31T18:12:32.038Z,97000.00
2022-10-31T18:15:06.734Z,97012.00
2022-10-31T18:17:47.108Z,96979.00
2022-10-31T18:20:18.662Z,96996.00
2022-10-31T18:23:06.997Z,96989.00
2022-10-31T18:25:51.124Z,96972.00
2022-10-31T18:28:26.052Z,96985.00
2022-10-31T18:31:07.280Z,96979.00
2022-10-31T18:33:35.592Z,96974.00
2022-10-31T18:36:14.523Z,96980.00
2022-10-31T18:38:59.824Z,96991.00
2022-10-31T18:41:39.775Z,96978.00
2022-10-31T18:44:31.902Z,96974.00
2022-10-31T18:46:59.038Z,96963.00
2022-10-31T18:49:26.217Z,96966.00
2022-10-31T18:51:53.484Z,96969.00
2022-10-31T18:54:20.681Z,96974.00
2022-10-31T18:56:47.878Z,96969.00
2022-10-31T18:59:15.032Z,96971.00
2022-10-31T19:01:42.366Z,96963.00
2022-10-31T19:04:11.666Z,96965.00
2022-10-31T19:06:38.861Z,96953.00
2022-10-31T19:09:09.470Z,96953.00
2022-10-31T19:11:37.549Z,96958.00
2022-10-31T19:14:05.545Z,96952.00
2022-10-31T19:16:34.410Z,96959.00
2022-10-31T19:19:01.631Z,96962.00
2022-10-31T19:21:30.331Z,96950.00
2022-10-31T19:23:58.128Z,96950.00
2022-10-31T19:26:26.206Z,96946.00
2022-10-31T19:28:54.536Z,96962.00
2022-10-31T19:31:21.768Z,96958.00
2022-10-31T19:33:48.996Z,96961.00
2022-10-31T19:36:18.480Z,96964.00
2022-10-31T19:38:47.405Z,96963.00
2022-10-31T19:41:26.034Z,96961.00
2022-10-31T19:43:53.974Z,96969.00
2022-10-31T19:46:40.551Z,96973.00
2022-10-31T19:49:10.976Z,96968.00
2022-10-31T19:51:38.146Z,96961.00
2022-10-31T19:54:05.321Z,96956.00
2022-10-31T19:56:32.461Z,96971.00
2022-10-31T19:58:59.787Z,96971.00
2022-10-31T20:01:26.995Z,96970.00
2022-10-31T20:03:54.218Z,96970.00
2022-10-31T20:06:24.304Z,96973.00
2022-10-31T20:08:52.386Z,96973.00
2022-10-31T20:11:20.590Z,96972.00
2022-10-31T20:13:47.896Z,96969.00
2022-10-31T20:16:16.005Z,96968.00
2022-10-31T20:18:43.886Z,96975.00
2022-10-31T20:21:19.389Z,96970.00
2022-10-31T20:23:47.516Z,96969.00
2022-10-31T20:26:17.658Z,96962.00
2022-10-31T20:28:45.459Z,96957.00
2022-10-31T20:31:18.669Z,96955.00
2022-10-31T20:33:46.253Z,96949.00
2022-10-31T20:36:14.469Z,96953.00
2022-10-31T20:38:42.279Z,96953.00
2022-10-31T20:41:10.967Z,96949.00
2022-10-31T20:43:38.801Z,96940.00
2022-10-31T20:46:09.857Z,96947.00
2022-10-31T20:48:37.168Z,96944.00
2022-10-31T20:51:06.839Z,96933.00
2022-10-31T20:53:34.224Z,96948.00
2022-10-31T20:56:19.419Z,96945.00
2022-10-31T20:58:47.253Z,96942.00
2022-10-31T21:01:22.671Z,96955.00
2022-10-31T21:03:50.448Z,96954.00
2022-10-31T21:06:18.669Z,96966.00
2022-10-31T21:08:45.815Z,96955.00
2022-10-31T21:11:16.094Z,96954.00
2022-10-31T21:13:44.629Z,96962.00
2022-10-31T21:16:14.762Z,96955.00
2022-10-31T21:18:43.151Z,96947.00
2022-10-31T21:21:14.542Z,96945.00
2022-10-31T21:23:43.056Z,96936.00
2022-10-31T21:26:13.693Z,96938.00
2022-10-31T21:28:41.268Z,96940.00
2022-10-31T21:31:10.505Z,96947.00
2022-10-31T21:33:37.902Z,96947.00
2022-10-31T21:36:05.691Z,96932.00
2022-10-31T21:38:33.596Z,96934.00
2022-10-31T21:41:02.039Z,96943.00
2022-10-31T21:43:30.468Z,96935.00
2022-10-31T21:46:06.559Z,96936.00
2022-10-31T21:48:39.339Z,96937.00
2022-10-31T21:51:08.970Z,96941.00
2022-10-31T21:53:55.667Z,96941.00
2022-10-31T21:56:23.871Z,96941.00
2022-10-31T21:58:51.721Z,96938.00
2022-10-31T22:01:19.382Z,96950.00
2022-10-31T22:03:46.678Z,96940.00
2022-10-31T22:06:14.529Z,96927.00
2022-10-31T22:08:42.109Z,96939.00
2022-10-31T22:11:17.240Z,96926.00
2022-10-31T22:13:46.413Z,96932.00
2022-10-31T22:16:18.485Z,96928.00
2022-10-31T22:18:46.149Z,96936.00
2022-10-31T22:21:16.220Z,96940.00
2022-10-31T22:23:43.805Z,96935.00
2022-10-31T22:26:15.424Z,96940.00
2022-10-31T22:28:47.680Z,96940.00
2022-10-31T22:31:17.390Z,96933.00
2022-10-31T22:33:45.577Z,96931.00
2022-10-31T22:36:15.326Z,96934.00
2022-10-31T22:38:43.040Z,96940.00
2022-10-31T22:41:15.176Z,96943.00
2022-10-31T22:43:42.630Z,96940.00
2022-10-31T22:46:13.309Z,96943.00
2022-10-31T22:48:43.109Z,96934.00
2022-10-31T22:51:13.655Z,96931.00
2022-10-31T22:53:41.039Z,96933.00
2022-10-31T22:56:10.364Z,96932.00
2022-10-31T22:58:37.761Z,96925.00
2022-10-31T23:01:16.252Z,96933.00
2022-10-31T23:03:43.633Z,96926.00
2022-10-31T23:06:13.608Z,96932.00
2022-10-31T23:08:41.275Z,96929.00
2022-10-31T23:11:34.615Z,96928.00
2022-10-31T23:14:14.328Z,96926.00
2022-10-31T23:16:47.779Z,96919.00
2022-10-31T23:19:21.944Z,96916.00
2022-10-31T23:21:55.028Z,96923.00
2022-10-31T23:24:38.542Z,96915.00
2022-10-31T23:27:23.674Z,96908.00
2022-10-31T23:29:58.017Z,96912.00
2022-10-31T23:32:26.503Z,96908.00
2022-10-31T23:35:01.797Z,96919.00
2022-10-31T23:37:30.759Z,96910.00
2022-10-31T23:39:58.335Z,96920.00
2022-10-31T23:42:26.481Z,96924.00
2022-10-31T23:44:53.738Z,96924.00
2022-10-31T23:47:21.702Z,96927.00
2022-10-31T23:49:49.233Z,96921.00
2022-10-31T23:52:16.882Z,96915.00
2022-10-31T23:54:44.185Z,96914.00
2022-10-31T23:57:13.164Z,96919.00
2022-10-31T23:59:40.419Z,96917.00
